createdAt,value
2018-03-11T00:00:08.555Z,8.60
2018-03-11T00:02:34.652Z,8.70
2018-03-11T00:05:00.736Z,10.75
2018-03-11T00:07:26.811Z,13.38
2018-03-11T00:09:53.651Z,13.75
2018-03-11T00:12:19.716Z,11.60
2018-03-11T00:14:45.792Z,10.95
2018-03-11T00:17:11.895Z,10.18
2018-03-11T00:19:37.959Z,10.77
2018-03-11T00:22:04.055Z,10.93
2018-03-11T00:24:30.931Z,12.68
2018-03-11T00:26:57.006Z,13.10
2018-03-11T00:29:23.092Z,12.70
2018-03-11T00:31:49.910Z,13.07
2018-03-11T00:34:15.971Z,13.45
2018-03-11T00:36:42.823Z,11.90
2018-03-11T00:39:09.711Z,13.45
2018-03-11T00:41:35.859Z,13.27
2018-03-11T00:44:01.935Z,13.25
2018-03-11T00:46:28.020Z,13.13
2018-03-11T00:48:54.087Z,14.00
2018-03-11T00:51:20.199Z,14.87
2018-03-11T00:53:46.275Z,15.70
2018-03-11T00:56:12.354Z,15.38
2018-03-11T00:58:39.184Z,15.10
2018-03-11T01:01:05.267Z,14.00
2018-03-11T01:03:31.353Z,15.48
2018-03-11T01:05:57.432Z,16.73
2018-03-11T01:08:23.515Z,15.95
2018-03-11T01:10:49.650Z,19.98
2018-03-11T01:13:15.772Z,19.23
2018-03-11T01:15:41.846Z,22.27
2018-03-11T01:18:07.962Z,18.70
2018-03-11T01:20:34.035Z,17.00
2018-03-11T01:23:00.206Z,17.15
2018-03-11T01:25:26.523Z,17.25
2018-03-11T01:27:53.398Z,15.50
2018-03-11T01:30:19.554Z,16.25
2018-03-11T01:32:45.703Z,15.88
2018-03-11T01:35:17.769Z,16.85
2018-03-11T01:37:43.899Z,15.50
2018-03-11T01:40:10.075Z,14.57
2018-03-11T01:42:36.152Z,14.95
2018-03-11T01:45:03.047Z,15.15
2018-03-11T01:47:29.170Z,13.62
2018-03-11T01:49:55.352Z,18.00
2018-03-11T01:52:21.439Z,16.08
2018-03-11T01:54:48.265Z,16.30
2018-03-11T01:57:14.456Z,15.57
2018-03-11T01:59:40.531Z,16.02
2018-03-11T02:02:06.952Z,14.90
2018-03-11T02:04:33.173Z,16.62
2018-03-11T02:06:59.260Z,15.90
2018-03-11T02:09:25.339Z,16.67
2018-03-11T02:11:51.508Z,17.08
2018-03-11T02:14:18.040Z,19.10
2018-03-11T02:16:44.138Z,17.73
2018-03-11T02:19:10.231Z,16.50
2018-03-11T02:21:36.364Z,14.90
2018-03-11T02:24:02.447Z,15.60
2018-03-11T02:26:28.650Z,14.70
2018-03-11T02:28:54.720Z,20.05
2018-03-11T02:31:20.800Z,17.05
2018-03-11T02:33:46.864Z,14.55
2018-03-11T02:36:13.179Z,13.20
2018-03-11T02:38:39.433Z,14.18
2018-03-11T02:41:05.560Z,14.57
2018-03-11T02:43:31.632Z,21.98
2018-03-11T02:45:57.721Z,17.95
2018-03-11T02:48:24.585Z,15.35
2018-03-11T02:50:50.657Z,14.38
2018-03-11T02:53:16.734Z,16.37
2018-03-11T02:55:43.543Z,16.08
2018-03-11T02:58:09.615Z,15.85
2018-03-11T03:00:35.671Z,19.98
2018-03-11T03:03:01.747Z,23.95
2018-03-11T03:05:27.807Z,45.92
2018-03-11T03:07:54.071Z,22.33
2018-03-11T03:10:20.383Z,28.23
2018-03-11T03:12:46.483Z,17.87
2018-03-11T03:15:12.543Z,18.75
2018-03-11T03:17:38.615Z,24.45
2018-03-11T03:20:04.680Z,17.70
2018-03-11T03:22:30.759Z,20.37
2018-03-11T03:24:57.739Z,14.32
2018-03-11T03:27:23.809Z,15.07
2018-03-11T03:29:50.782Z,18.83
2018-03-11T03:32:17.579Z,14.02
2018-03-11T03:34:43.674Z,14.27
2018-03-11T03:37:09.798Z,13.40
2018-03-11T03:39:36.671Z,15.00
2018-03-11T03:42:02.810Z,16.15
2018-03-11T03:44:28.866Z,13.95
2018-03-11T03:46:54.939Z,17.90
2018-03-11T03:49:21.013Z,14.60
2018-03-11T03:51:47.822Z,17.60
2018-03-11T03:54:13.883Z,14.82
2018-03-11T03:56:40.092Z,15.45
2018-03-11T03:59:06.216Z,28.35
2018-03-11T04:01:32.519Z,20.27
2018-03-11T04:03:59.312Z,24.23
2018-03-11T04:06:25.372Z,18.45
2018-03-11T04:08:51.431Z,22.13
2018-03-11T04:11:17.499Z,22.73
2018-03-11T04:13:43.560Z,18.60
2018-03-11T04:16:09.912Z,15.82
2018-03-11T04:18:35.971Z,15.98
2018-03-11T04:21:02.028Z,19.05
2018-03-11T04:23:28.111Z,18.70
2018-03-11T04:25:54.172Z,17.20
2018-03-11T04:28:20.247Z,16.30
2018-03-11T04:30:47.042Z,18.98
2018-03-11T04:33:13.103Z,20.20
2018-03-11T04:35:39.618Z,18.20
2018-03-11T04:38:05.727Z,18.95
2018-03-11T04:40:32.543Z,21.95
2018-03-11T04:42:58.628Z,24.48
2018-03-11T04:45:25.434Z,32.30
2018-03-11T04:47:51.526Z,20.30
2018-03-11T04:50:17.592Z,22.77
2018-03-11T04:52:43.671Z,21.00
2018-03-11T04:55:09.740Z,26.55
2018-03-11T04:57:35.827Z,21.30
2018-03-11T05:00:01.930Z,24.75
2018-03-11T05:02:27.999Z,18.17
2018-03-11T05:04:54.095Z,14.63
2018-03-11T05:07:20.175Z,13.48
2018-03-11T05:09:46.256Z,15.40
2018-03-11T05:12:13.080Z,14.55
2018-03-11T05:14:39.159Z,12.25
2018-03-11T05:17:05.236Z,14.25
2018-03-11T05:19:31.318Z,14.85
2018-03-11T05:21:58.127Z,17.85
2018-03-11T05:24:24.208Z,12.65
2018-03-11T05:26:50.287Z,13.07
2018-03-11T05:29:16.389Z,12.40
2018-03-11T05:31:43.206Z,13.27
2018-03-11T05:34:09.300Z,14.73
2018-03-11T05:36:35.401Z,13.15
2018-03-11T05:39:01.495Z,14.15
2018-03-11T05:41:27.583Z,14.85
2018-03-11T05:43:54.403Z,14.85
2018-03-11T05:46:20.484Z,14.40
2018-03-11T05:48:47.296Z,14.35
2018-03-11T05:51:13.556Z,13.82
2018-03-11T05:53:39.635Z,15.00
2018-03-11T05:56:05.712Z,13.82
2018-03-11T05:58:31.788Z,13.20
2018-03-11T06:00:58.643Z,13.82
2018-03-11T06:03:25.527Z,13.75
2018-03-11T06:05:51.600Z,13.48
2018-03-11T06:08:17.667Z,13.60
2018-03-11T06:10:43.751Z,13.32
2018-03-11T06:13:09.824Z,13.65
2018-03-11T06:15:35.923Z,14.98
2018-03-11T06:18:02.050Z,13.30
2018-03-11T06:20:28.119Z,14.10
2018-03-11T06:22:54.208Z,13.52
2018-03-11T06:25:21.068Z,14.63
2018-03-11T06:27:47.156Z,14.73
2018-03-11T06:30:13.236Z,14.80
2018-03-11T06:32:40.057Z,14.30
2018-03-11T06:35:06.144Z,14.45
2018-03-11T06:37:32.220Z,14.18
2018-03-11T06:39:58.299Z,14.82
2018-03-11T06:42:25.104Z,13.48
2018-03-11T06:44:51.159Z,13.25
2018-03-11T06:47:17.232Z,13.25
2018-03-11T06:49:44.035Z,14.23
2018-03-11T06:52:10.156Z,14.80
2018-03-11T06:54:36.228Z,15.70
2018-03-11T06:57:02.324Z,15.20
2018-03-11T06:59:28.436Z,15.73
2018-03-11T07:01:55.235Z,16.45
2018-03-11T07:04:21.308Z,17.77
2018-03-11T07:06:47.371Z,17.50
2018-03-11T07:09:14.232Z,18.25
2018-03-11T07:11:40.308Z,21.02
2018-03-11T07:14:06.379Z,23.17
2018-03-11T07:16:32.435Z,24.75
2018-03-11T07:18:59.262Z,24.58
2018-03-11T07:21:25.428Z,26.73
2018-03-11T07:23:52.325Z,29.20
2018-03-11T07:26:18.376Z,29.45
2018-03-11T07:28:44.528Z,27.48
2018-03-11T07:31:10.548Z,29.15
2018-03-11T07:33:36.635Z,32.00
2018-03-11T07:36:03.502Z,33.00
2018-03-11T07:38:29.529Z,38.78
2018-03-11T07:40:56.339Z,37.75
2018-03-11T07:43:22.400Z,22.48
2018-03-11T07:45:48.482Z,24.12
2018-03-11T07:48:14.548Z,22.45
2018-03-11T07:50:40.615Z,24.48
2018-03-11T07:53:06.668Z,24.10
2018-03-11T07:55:33.517Z,27.42
2018-03-11T07:58:00.326Z,29.10
2018-03-11T08:00:26.432Z,27.73
2018-03-11T08:02:52.487Z,24.45
2018-03-11T08:05:18.595Z,21.98
2018-03-11T08:07:44.676Z,20.90
2018-03-11T08:10:11.519Z,24.85
2018-03-11T08:12:37.603Z,22.08
2018-03-11T08:15:03.675Z,23.70
2018-03-11T08:17:29.755Z,23.45
2018-03-11T08:19:55.852Z,25.67
2018-03-11T08:22:21.934Z,21.45
2018-03-11T08:24:48.110Z,23.50
2018-03-11T08:27:14.379Z,23.90
2018-03-11T08:29:40.472Z,24.50
2018-03-11T08:32:07.352Z,25.12
2018-03-11T08:34:33.410Z,23.20
2018-03-11T08:36:59.523Z,22.75
2018-03-11T08:39:26.343Z,23.10
2018-03-11T08:41:52.420Z,24.23
2018-03-11T08:44:18.504Z,22.40
2018-03-11T08:46:44.599Z,23.63
2018-03-11T08:49:10.766Z,27.80
2018-03-11T08:51:36.865Z,24.70
2018-03-11T08:54:02.967Z,26.10
2018-03-11T08:56:29.077Z,22.80
2018-03-11T08:58:55.182Z,24.10
2018-03-11T09:01:21.352Z,25.60
2018-03-11T09:03:47.427Z,23.20
2018-03-11T09:06:14.348Z,24.10
2018-03-11T09:08:40.451Z,22.30
2018-03-11T09:11:07.343Z,21.37
2018-03-11T09:13:33.422Z,17.90
2018-03-11T09:15:59.660Z,18.63
2018-03-11T09:18:25.741Z,16.93
2018-03-11T09:20:51.815Z,16.27
2018-03-11T09:23:17.951Z,17.17
2018-03-11T09:25:44.060Z,15.53
2018-03-11T09:28:10.207Z,16.50
2018-03-11T09:30:36.344Z,18.10
2018-03-11T09:33:02.484Z,17.37
2018-03-11T09:35:28.608Z,15.67
2018-03-11T09:37:54.716Z,14.90
2018-03-11T09:40:21.043Z,15.60
2018-03-11T09:42:47.148Z,16.20
2018-03-11T09:45:13.276Z,14.80
2018-03-11T09:47:39.424Z,15.00
2018-03-11T09:50:05.576Z,15.50
2018-03-11T09:52:31.686Z,15.17
2018-03-11T09:54:58.823Z,14.53
2018-03-11T09:57:25.715Z,14.70
2018-03-11T09:59:51.901Z,14.20
2018-03-11T10:02:18.096Z,13.17
2018-03-11T10:04:44.253Z,12.93
2018-03-11T10:07:10.364Z,12.43
2018-03-11T10:09:36.472Z,16.17
2018-03-11T10:12:02.559Z,16.47
2018-03-11T10:14:28.667Z,16.40
2018-03-11T10:16:55.537Z,17.37
2018-03-11T10:19:21.631Z,16.53
2018-03-11T10:21:47.812Z,17.40
2018-03-11T10:24:13.911Z,17.50
2018-03-11T10:26:40.119Z,15.97
2018-03-11T10:29:06.338Z,18.77
2018-03-11T10:31:32.422Z,18.07
2018-03-11T10:33:58.531Z,19.43
2018-03-11T10:36:24.662Z,17.00
2018-03-11T10:38:50.840Z,18.40
2018-03-11T10:41:17.041Z,18.67
2018-03-11T10:43:43.179Z,19.60
2018-03-11T10:46:09.369Z,18.43
2018-03-11T10:48:36.244Z,18.40
2018-03-11T10:51:02.319Z,18.87
2018-03-11T10:53:28.443Z,18.40
2018-03-11T10:55:54.499Z,18.70
2018-03-11T10:58:20.580Z,18.33
2018-03-11T11:00:51.867Z,18.00
2018-03-11T11:03:18.012Z,17.93
2018-03-11T11:05:44.104Z,17.63
2018-03-11T11:08:10.172Z,18.57
2018-03-11T11:10:36.259Z,19.27
2018-03-11T11:13:02.360Z,17.70
2018-03-11T11:15:28.499Z,17.27
2018-03-11T11:17:54.571Z,16.77
2018-03-11T11:20:20.655Z,17.07
2018-03-11T11:22:47.555Z,17.10
2018-03-11T11:25:13.669Z,15.97
2018-03-11T11:27:39.757Z,16.20
2018-03-11T11:30:05.888Z,17.17
2018-03-11T11:32:32.018Z,16.83
2018-03-11T11:34:58.092Z,17.17
2018-03-11T11:37:24.175Z,16.90
2018-03-11T11:39:50.311Z,16.80
2018-03-11T11:42:16.443Z,15.80
2018-03-11T11:44:42.527Z,16.33
2018-03-11T11:47:08.706Z,16.20
2018-03-11T11:49:34.863Z,17.10
2018-03-11T11:52:01.007Z,16.40
2018-03-11T11:54:27.165Z,17.40
2018-03-11T11:56:53.291Z,15.77
2018-03-11T11:59:19.450Z,15.20
2018-03-11T12:01:45.764Z,15.33
2018-03-11T12:04:11.902Z,17.40
2018-03-11T12:06:38.036Z,15.60
2018-03-11T12:09:04.147Z,15.47
2018-03-11T12:11:31.007Z,15.80
2018-03-11T12:13:57.087Z,15.80
2018-03-11T12:16:23.304Z,15.40
2018-03-11T12:18:49.375Z,16.03
2018-03-11T12:21:15.536Z,14.90
2018-03-11T12:23:41.619Z,14.93
2018-03-11T12:26:07.792Z,14.77
2018-03-11T12:28:33.940Z,15.27
2018-03-11T12:31:00.908Z,18.30
2018-03-11T12:33:27.135Z,17.10
2018-03-11T12:35:53.256Z,15.10
2018-03-11T12:38:19.323Z,13.97
2018-03-11T12:40:45.416Z,17.63
2018-03-11T12:43:11.471Z,12.13
2018-03-11T12:45:37.570Z,10.93
2018-03-11T12:48:04.413Z,13.10
2018-03-11T12:50:30.600Z,18.03
2018-03-11T12:52:56.676Z,7.50
2018-03-11T12:55:22.765Z,6.93
2018-03-11T12:57:48.859Z,7.80
2018-03-11T13:00:14.929Z,7.07
2018-03-11T13:02:41.011Z,6.20
2018-03-11T13:05:07.069Z,5.10
2018-03-11T13:07:33.172Z,5.83
2018-03-11T13:09:59.238Z,6.53
2018-03-11T13:12:25.304Z,6.23
2018-03-11T13:14:52.131Z,5.00
2018-03-11T13:17:18.191Z,8.10
2018-03-11T13:19:45.037Z,3.63
2018-03-11T13:22:11.136Z,4.00
2018-03-11T13:24:37.237Z,5.40
2018-03-11T13:27:03.303Z,5.60
2018-03-11T13:29:29.408Z,4.40
2018-03-11T13:32:08.724Z,5.37
2018-03-11T13:34:34.811Z,5.00
2018-03-11T13:37:00.891Z,4.30
2018-03-11T13:39:39.218Z,7.93
2018-03-11T13:42:05.307Z,6.20
2018-03-11T13:44:31.472Z,7.20
2018-03-11T13:47:05.379Z,6.90
2018-03-11T13:49:32.572Z,6.33
2018-03-11T13:52:11.083Z,5.97
2018-03-11T13:54:37.167Z,6.20
2018-03-11T13:57:15.672Z,5.50
2018-03-11T13:59:41.760Z,6.03
2018-03-11T14:02:08.552Z,5.20
2018-03-11T14:04:35.579Z,4.47
2018-03-11T14:07:01.660Z,4.20
2018-03-11T14:09:28.600Z,3.67
2018-03-11T14:11:54.688Z,3.07
2018-03-11T14:14:20.913Z,3.10
2018-03-11T14:16:47.043Z,4.20
2018-03-11T14:19:13.097Z,3.60
2018-03-11T14:21:39.180Z,3.60
2018-03-11T14:24:05.315Z,3.63
2018-03-11T14:26:31.407Z,3.17
2018-03-11T14:28:57.471Z,3.23
2018-03-11T14:31:23.628Z,2.77
2018-03-11T14:33:49.688Z,3.00
2018-03-11T14:36:15.915Z,3.53
2018-03-11T14:38:41.984Z,3.50
2018-03-11T14:41:08.147Z,3.30
2018-03-11T14:43:34.999Z,3.93
2018-03-11T14:46:01.080Z,3.70
2018-03-11T14:48:27.196Z,4.27
2018-03-11T14:50:54.003Z,4.07
2018-03-11T14:53:20.136Z,4.03
2018-03-11T14:55:46.206Z,3.80
2018-03-11T14:58:12.330Z,3.70
2018-03-11T15:00:38.410Z,3.73
2018-03-11T15:03:04.594Z,3.60
2018-03-11T15:05:30.722Z,4.37
2018-03-11T15:07:56.831Z,3.53
2018-03-11T15:10:22.999Z,3.60
2018-03-11T15:12:49.149Z,3.90
2018-03-11T15:15:15.269Z,3.40
2018-03-11T15:17:41.388Z,3.23
2018-03-11T15:20:07.564Z,4.37
2018-03-11T15:22:33.715Z,3.60
2018-03-11T15:24:59.807Z,3.60
2018-03-11T15:27:25.946Z,3.50
2018-03-11T15:29:52.108Z,3.53
2018-03-11T15:32:18.240Z,5.93
2018-03-11T15:34:44.391Z,4.60
2018-03-11T15:37:10.627Z,3.93
2018-03-11T15:39:37.379Z,3.60
2018-03-11T15:42:05.743Z,3.67
2018-03-11T15:44:31.840Z,3.80
2018-03-11T15:46:57.955Z,3.27
2018-03-11T15:49:24.075Z,3.60
2018-03-11T15:51:50.145Z,3.47
2018-03-11T15:54:16.292Z,3.40
2018-03-11T15:56:42.431Z,3.57
2018-03-11T15:59:08.507Z,3.90
2018-03-11T16:01:34.599Z,4.13
2018-03-11T16:04:00.700Z,3.40
2018-03-11T16:06:26.812Z,4.10
2018-03-11T16:08:53.701Z,3.73
2018-03-11T16:11:19.772Z,3.40
2018-03-11T16:13:47.910Z,3.10
2018-03-11T16:16:14.016Z,4.40
2018-03-11T16:18:40.820Z,4.00
2018-03-11T16:21:06.928Z,4.37
2018-03-11T16:23:33.052Z,3.40
2018-03-11T16:25:59.887Z,3.63
2018-03-11T16:28:25.955Z,3.03
2018-03-11T16:30:52.060Z,3.40
2018-03-11T16:33:18.242Z,3.80
2018-03-11T16:35:44.367Z,3.87
2018-03-11T16:38:11.198Z,2.70
2018-03-11T16:40:37.260Z,2.30
2018-03-11T16:43:03.367Z,1.73
2018-03-11T16:45:29.423Z,1.40
2018-03-11T16:47:56.292Z,2.33
2018-03-11T16:50:23.099Z,1.80
2018-03-11T16:52:49.207Z,1.87
2018-03-11T16:55:15.291Z,1.77
2018-03-11T16:57:41.395Z,1.60
2018-03-11T17:00:07.539Z,2.70
2018-03-11T17:02:33.630Z,2.33
2018-03-11T17:05:00.471Z,1.70
2018-03-11T17:07:26.556Z,1.83
2018-03-11T17:09:52.615Z,4.30
2018-03-11T17:12:18.760Z,1.70
2018-03-11T17:14:44.843Z,2.53
2018-03-11T17:17:11.740Z,2.60
2018-03-11T17:19:37.897Z,2.13
2018-03-11T17:22:04.007Z,2.03
2018-03-11T17:24:30.116Z,1.97
2018-03-11T17:26:56.998Z,2.10
2018-03-11T17:29:23.116Z,2.30
2018-03-11T17:31:49.999Z,2.17
2018-03-11T17:34:16.107Z,2.03
2018-03-11T17:36:42.987Z,1.90
2018-03-11T17:39:09.080Z,3.37
2018-03-11T17:41:35.236Z,3.57
2018-03-11T17:44:02.144Z,3.20
2018-03-11T17:46:28.255Z,2.93
2018-03-11T17:48:54.333Z,3.17
2018-03-11T17:51:20.556Z,3.13
2018-03-11T17:53:46.624Z,3.50
2018-03-11T17:56:12.729Z,3.07
2018-03-11T17:58:38.827Z,2.40
2018-03-11T18:01:05.743Z,2.80
2018-03-11T18:03:31.827Z,2.63
2018-03-11T18:05:58.648Z,2.70
2018-03-11T18:08:24.777Z,2.60
2018-03-11T18:10:51.247Z,3.30
2018-03-11T18:13:17.461Z,3.17
2018-03-11T18:15:43.539Z,2.37
2018-03-11T18:18:10.344Z,2.70
2018-03-11T18:20:37.191Z,2.73
2018-03-11T18:23:04.019Z,3.47
2018-03-11T18:25:30.111Z,3.40
2018-03-11T18:27:56.179Z,3.13
2018-03-11T18:30:23.011Z,2.67
2018-03-11T18:32:49.207Z,3.13
2018-03-11T18:35:15.356Z,3.63
2018-03-11T18:37:41.455Z,3.30
2018-03-11T18:40:07.527Z,5.20
2018-03-11T18:42:33.629Z,2.83
2018-03-11T18:45:00.548Z,3.67
2018-03-11T18:47:26.655Z,3.33
2018-03-11T18:49:52.812Z,5.80
2018-03-11T18:52:18.889Z,6.40
2018-03-11T18:54:45.048Z,6.50
2018-03-11T18:57:11.184Z,4.00
2018-03-11T18:59:38.083Z,4.00
2018-03-11T19:02:04.248Z,4.73
2018-03-11T19:04:30.332Z,4.70
2018-03-11T19:06:56.718Z,5.83
2018-03-11T19:09:22.884Z,9.93
2018-03-11T19:11:49.040Z,9.10
2018-03-11T19:14:16.051Z,7.93
2018-03-11T19:16:42.130Z,5.80
2018-03-11T19:19:08.996Z,5.57
2018-03-11T19:21:35.151Z,5.17
2018-03-11T19:24:01.295Z,5.37
2018-03-11T19:26:27.417Z,7.40
2018-03-11T19:28:53.556Z,7.03
2018-03-11T19:31:19.733Z,5.20
2018-03-11T19:33:46.047Z,5.00
2018-03-11T19:36:12.499Z,5.40
2018-03-11T19:38:38.642Z,6.07
2018-03-11T19:41:04.791Z,5.30
2018-03-11T19:43:30.917Z,5.60
2018-03-11T19:45:57.023Z,5.50
2018-03-11T19:48:23.967Z,4.73
2018-03-11T19:50:50.155Z,4.97
2018-03-11T19:53:16.218Z,4.87
2018-03-11T19:55:42.347Z,4.10
2018-03-11T19:58:08.467Z,4.60
2018-03-11T20:00:34.627Z,6.17
2018-03-11T20:03:00.747Z,7.63
2018-03-11T20:05:26.932Z,7.77
2018-03-11T20:07:53.259Z,6.50
2018-03-11T20:10:19.387Z,7.27
2018-03-11T20:12:45.540Z,5.63
2018-03-11T20:15:11.632Z,7.90
2018-03-11T20:17:37.703Z,8.30
2018-03-11T20:20:03.837Z,7.70
2018-03-11T20:22:30.647Z,7.00
2018-03-11T20:24:57.451Z,8.90
2018-03-11T20:27:23.540Z,7.90
2018-03-11T20:29:50.446Z,7.90
2018-03-11T20:32:16.556Z,7.47
2018-03-11T20:34:42.651Z,7.93
2018-03-11T20:37:08.972Z,7.23
2018-03-11T20:39:35.823Z,9.10
2018-03-11T20:42:01.927Z,6.97
2018-03-11T20:44:28.058Z,7.97
2018-03-11T20:46:54.144Z,16.77
2018-03-11T20:49:20.257Z,28.27
2018-03-11T20:51:46.393Z,20.97
2018-03-11T20:54:12.471Z,13.47
2018-03-11T20:56:38.551Z,14.10
2018-03-11T20:59:04.649Z,15.90
2018-03-11T21:01:30.732Z,13.23
2018-03-11T21:03:57.923Z,13.30
2018-03-11T21:06:24.772Z,12.60
2018-03-11T21:08:50.875Z,13.23
2018-03-11T21:11:17.720Z,12.00
2018-03-11T21:13:44.527Z,12.53
2018-03-11T21:16:10.643Z,12.97
2018-03-11T21:18:36.752Z,12.13
2018-03-11T21:21:03.631Z,11.70
2018-03-11T21:23:29.717Z,12.13
2018-03-11T21:25:55.828Z,13.70
2018-03-11T21:28:21.912Z,13.18
2018-03-11T21:30:48.162Z,18.10
2018-03-11T21:33:15.284Z,16.30
2018-03-11T21:35:41.620Z,15.17
2018-03-11T21:38:07.736Z,24.33
2018-03-11T21:40:33.859Z,21.00
2018-03-11T21:42:59.950Z,14.90
2018-03-11T21:45:26.055Z,19.27
2018-03-11T21:47:52.226Z,14.77
2018-03-11T21:50:18.303Z,17.77
2018-03-11T21:52:45.131Z,17.52
2018-03-11T21:55:11.255Z,18.98
2018-03-11T21:57:37.348Z,14.57
2018-03-11T22:00:03.428Z,15.45
2018-03-11T22:02:29.572Z,16.02
2018-03-11T22:04:55.788Z,12.77
2018-03-11T22:07:21.896Z,12.25
2018-03-11T22:09:48.046Z,10.70
2018-03-11T22:12:14.492Z,10.30
2018-03-11T22:14:40.576Z,8.60
2018-03-11T22:17:06.879Z,8.23
2018-03-11T22:19:32.984Z,9.43
2018-03-11T22:21:59.991Z,9.68
2018-03-11T22:24:26.071Z,10.57
2018-03-11T22:26:52.931Z,12.10
2018-03-11T22:29:20.362Z,14.05
2018-03-11T22:31:46.462Z,15.73
2018-03-11T22:34:12.572Z,16.37
2018-03-11T22:36:38.643Z,15.63
2018-03-11T22:39:04.768Z,14.55
2018-03-11T22:41:30.928Z,13.65
2018-03-11T22:43:57.016Z,13.45
2018-03-11T22:46:23.112Z,14.10
2018-03-11T22:48:49.191Z,9.90
2018-03-11T22:51:15.316Z,7.65
2018-03-11T22:53:41.401Z,7.15
2018-03-11T22:56:07.507Z,8.27
2018-03-11T22:58:33.591Z,9.65
2018-03-11T23:00:59.700Z,8.73
2018-03-11T23:03:26.578Z,27.50
2018-03-11T23:05:52.838Z,12.32
2018-03-11T23:08:19.122Z,18.35
2018-03-11T23:10:45.188Z,23.25
2018-03-11T23:13:11.300Z,21.60
2018-03-11T23:15:37.482Z,16.05
2018-03-11T23:18:03.579Z,17.15
2018-03-11T23:20:29.783Z,14.70
2018-03-11T23:22:56.699Z,14.20
2018-03-11T23:25:23.822Z,12.15
2018-03-11T23:27:50.075Z,12.90
2018-03-11T23:30:16.967Z,12.80
2018-03-11T23:32:43.036Z,14.40
2018-03-11T23:35:09.175Z,14.63
2018-03-11T23:37:35.264Z,12.32
2018-03-11T23:40:01.961Z,12.68
2018-03-11T23:42:28.431Z,12.60
2018-03-11T23:44:54.829Z,11.93
2018-03-11T23:47:21.429Z,10.98
2018-03-11T23:49:48.279Z,13.50
2018-03-11T23:52:14.381Z,11.25
2018-03-11T23:54:40.480Z,11.90
2018-03-11T23:57:07.304Z,13.73
2018-03-11T23:59:33.406Z,13.10
